createdAt,value
2022-10-28T00:01:16.829Z,99743.13
2022-10-28T00:03:50.954Z,99737.91
2022-10-28T00:06:21.238Z,99715.97
2022-10-28T00:08:48.977Z,99721.06
2022-10-28T00:11:22.736Z,99728.63
2022-10-28T00:13:50.870Z,99707.47
2022-10-28T00:16:28.320Z,99728.56
2022-10-28T00:18:55.985Z,99725.34
2022-10-28T00:21:32.397Z,99733.00
2022-10-28T00:23:59.568Z,99719.53
2022-10-28T00:26:32.019Z,99728.63
2022-10-28T00:29:06.627Z,99720.22
2022-10-28T00:31:35.354Z,99710.94
2022-10-28T00:34:05.991Z,99718.59
2022-10-28T00:36:37.072Z,99728.25
2022-10-28T00:39:11.599Z,99717.22
2022-10-28T00:41:42.190Z,99705.38
2022-10-28T00:44:59.090Z,99727.34
2022-10-28T00:47:43.927Z,99721.19
2022-10-28T00:50:51.826Z,99730.13
2022-10-28T00:53:27.046Z,99731.00
2022-10-28T00:55:55.573Z,99714.09
2022-10-28T00:58:24.951Z,99727.81
2022-10-28T01:00:51.743Z,99723.69
2022-10-28T01:03:18.902Z,99722.31
2022-10-28T01:05:48.658Z,99726.50
2022-10-28T01:08:16.362Z,99728.34
2022-10-28T01:11:11.267Z,99724.75
2022-10-28T01:14:30.957Z,99720.44
2022-10-28T01:17:41.929Z,99712.19
2022-10-28T01:20:17.519Z,99723.44
2022-10-28T01:22:55.587Z,99716.00
2022-10-28T01:25:44.231Z,99721.13
2022-10-28T01:28:49.526Z,99710.50
2022-10-28T01:31:44.322Z,99726.44
2022-10-28T01:34:37.022Z,99708.13
2022-10-28T01:37:49.255Z,99709.13
2022-10-28T01:40:41.639Z,99701.59
2022-10-28T01:43:16.757Z,99695.50
2022-10-28T01:45:58.635Z,99701.41
2022-10-28T01:48:52.100Z,99710.19
2022-10-28T01:51:35.412Z,99706.00
2022-10-28T01:54:07.062Z,99700.00
2022-10-28T01:56:40.656Z,99701.69
2022-10-28T01:59:17.794Z,99709.41
2022-10-28T02:01:44.869Z,99704.22
2022-10-28T02:04:11.860Z,99708.81
2022-10-28T02:06:41.115Z,99713.81
2022-10-28T02:09:13.583Z,99702.38
2022-10-28T02:11:54.104Z,99694.97
2022-10-28T02:14:32.942Z,99705.38
2022-10-28T02:17:03.447Z,99686.88
2022-10-28T02:19:45.071Z,99690.94
2022-10-28T02:22:25.126Z,99689.16
2022-10-28T02:25:07.240Z,99701.28
2022-10-28T02:27:54.034Z,99691.94
2022-10-28T02:30:27.621Z,99674.47
2022-10-28T02:33:00.200Z,99693.00
2022-10-28T02:36:04.724Z,99685.94
2022-10-28T02:38:47.986Z,99679.22
2022-10-28T02:41:23.577Z,99681.50
2022-10-28T02:43:56.062Z,99688.44
2022-10-28T02:46:27.067Z,99684.88
2022-10-28T02:48:57.522Z,99683.41
2022-10-28T02:51:32.182Z,99671.56
2022-10-28T02:54:17.726Z,99667.28
2022-10-28T02:56:58.471Z,99661.28
2022-10-28T02:59:25.898Z,99669.72
2022-10-28T03:01:53.024Z,99662.06
2022-10-28T03:04:19.871Z,99674.91
2022-10-28T03:06:46.670Z,99675.94
2022-10-28T03:09:13.609Z,99681.22
2022-10-28T03:11:40.407Z,99688.94
2022-10-28T03:14:09.582Z,99677.53
2022-10-28T03:16:38.751Z,99676.78
2022-10-28T03:19:05.943Z,99674.31
2022-10-28T03:21:32.833Z,99688.25
2022-10-28T03:23:59.646Z,99694.31
2022-10-28T03:26:26.458Z,99691.63
2022-10-28T03:28:53.337Z,99672.78
2022-10-28T03:31:20.116Z,99664.66
2022-10-28T03:33:46.939Z,99683.22
2022-10-28T03:36:13.789Z,99689.47
2022-10-28T03:38:40.571Z,99684.56
2022-10-28T03:41:07.456Z,99681.81
2022-10-28T03:43:34.220Z,99670.78
2022-10-28T03:46:01.019Z,99674.78
2022-10-28T03:48:27.865Z,99676.00
2022-10-28T03:50:55.413Z,99673.31
2022-10-28T03:53:26.259Z,99656.53
2022-10-28T03:55:57.707Z,99673.38
2022-10-28T03:58:25.330Z,99672.78
2022-10-28T04:00:53.848Z,99686.59
2022-10-28T04:03:22.537Z,99680.44
2022-10-28T04:05:49.415Z,99677.75
2022-10-28T04:08:21.038Z,99681.91
2022-10-28T04:10:48.832Z,99675.91
2022-10-28T04:13:16.767Z,99672.47
2022-10-28T04:15:43.679Z,99675.22
2022-10-28T04:18:10.778Z,99676.91
2022-10-28T04:20:37.767Z,99676.13
2022-10-28T04:23:04.731Z,99662.56
2022-10-28T04:25:31.786Z,99668.31
2022-10-28T04:27:58.642Z,99663.97
2022-10-28T04:30:25.643Z,99666.47
2022-10-28T04:32:52.643Z,99664.81
2022-10-28T04:35:19.421Z,99665.88
2022-10-28T04:37:46.195Z,99657.44
2022-10-28T04:40:13.196Z,99663.25
2022-10-28T04:42:40.042Z,99660.59
2022-10-28T04:45:08.014Z,99672.53
2022-10-28T04:47:34.904Z,99663.25
2022-10-28T04:50:02.134Z,99663.97
2022-10-28T04:52:28.899Z,99668.38
2022-10-28T04:54:55.666Z,99659.84
2022-10-28T04:57:22.484Z,99660.59
2022-10-28T04:59:49.330Z,99661.28
2022-10-28T05:02:16.213Z,99644.28
2022-10-28T05:04:43.030Z,99655.00
2022-10-28T05:07:09.888Z,99654.84
2022-10-28T05:09:36.667Z,99658.56
2022-10-28T05:12:03.563Z,99659.16
2022-10-28T05:14:30.380Z,99663.44
2022-10-28T05:16:57.142Z,99657.25
2022-10-28T05:19:23.935Z,99649.50
2022-10-28T05:21:50.693Z,99646.88
2022-10-28T05:24:17.708Z,99625.09
2022-10-28T05:26:44.571Z,99653.81
2022-10-28T05:29:11.387Z,99642.63
2022-10-28T05:31:38.248Z,99640.53
2022-10-28T05:34:05.103Z,99627.00
2022-10-28T05:36:31.895Z,99632.03
2022-10-28T05:38:58.792Z,99627.44
2022-10-28T05:41:25.572Z,99618.94
2022-10-28T05:43:53.197Z,99619.19
2022-10-28T05:46:22.228Z,99621.47
2022-10-28T05:48:49.497Z,99638.63
2022-10-28T05:51:16.359Z,99645.59
2022-10-28T05:53:44.264Z,99639.66
2022-10-28T05:56:11.492Z,99643.59
2022-10-28T05:58:38.435Z,99630.97
2022-10-28T06:01:08.970Z,99632.13
2022-10-28T06:03:35.897Z,99636.97
2022-10-28T06:06:03.010Z,99619.50
2022-10-28T06:08:30.591Z,99632.81
2022-10-28T06:10:56.020Z,99618.88
2022-10-28T06:13:23.056Z,99653.63
2022-10-28T06:15:51.841Z,99646.34
2022-10-28T06:18:19.204Z,99659.78
2022-10-28T06:20:54.185Z,99656.56
2022-10-28T06:23:22.225Z,99651.97
2022-10-28T06:25:49.452Z,99658.84
2022-10-28T06:28:16.325Z,99649.50
2022-10-28T06:30:43.153Z,99668.19
2022-10-28T06:33:10.038Z,99675.06
2022-10-28T06:35:36.933Z,99676.63
2022-10-28T06:38:08.486Z,99659.47
2022-10-28T06:40:36.333Z,99674.63
2022-10-28T06:43:05.970Z,99669.59
2022-10-28T06:45:34.180Z,99660.06
2022-10-28T06:48:05.588Z,99673.00
2022-10-28T06:50:34.503Z,99667.81
2022-10-28T06:53:01.826Z,99665.28
2022-10-28T06:55:29.220Z,99650.06
2022-10-28T06:58:00.882Z,99662.75
2022-10-28T07:03:01.887Z,99659.91
2022-10-28T07:05:28.948Z,99660.91
2022-10-28T07:07:56.109Z,99657.72
2022-10-28T07:10:23.265Z,99651.50
2022-10-28T07:12:52.645Z,99656.31
2022-10-28T07:15:19.551Z,99651.19
2022-10-28T07:17:56.050Z,99654.56
2022-10-28T07:20:26.383Z,99636.97
2022-10-28T07:22:58.059Z,99641.47
2022-10-28T07:25:25.646Z,99642.19
2022-10-28T07:27:52.700Z,99632.91
2022-10-28T07:30:20.007Z,99646.38
2022-10-28T07:32:46.964Z,99632.19
2022-10-28T07:35:13.837Z,99642.88
2022-10-28T07:37:40.705Z,99656.50
2022-10-28T07:40:08.479Z,99649.31
2022-10-28T07:42:35.288Z,99641.88
2022-10-28T07:45:02.096Z,99665.63
2022-10-28T07:47:28.853Z,99656.19
2022-10-28T07:49:55.718Z,99665.28
2022-10-28T07:52:23.043Z,99672.22
2022-10-28T07:54:51.918Z,99676.47
2022-10-28T07:57:19.183Z,99659.31
2022-10-28T07:59:46.019Z,99668.84
2022-10-28T08:02:19.109Z,99678.75
2022-10-28T08:04:45.928Z,99673.41
2022-10-28T08:07:14.225Z,99669.78
2022-10-28T08:09:41.242Z,99674.91
2022-10-28T08:12:09.173Z,99656.94
2022-10-28T08:14:36.003Z,99671.41
2022-10-28T08:17:02.794Z,99667.03
2022-10-28T08:19:29.629Z,99672.91
2022-10-28T08:21:57.034Z,99669.41
2022-10-28T08:24:24.148Z,99670.41
2022-10-28T08:26:51.287Z,99673.59
2022-10-28T08:29:18.124Z,99668.47
2022-10-28T08:31:44.983Z,99656.59
2022-10-28T08:34:11.858Z,99679.28
2022-10-28T08:36:38.687Z,99684.41
2022-10-28T08:39:05.852Z,99678.19
2022-10-28T08:41:49.596Z,99671.38
2022-10-28T08:44:43.558Z,99678.84
2022-10-28T08:47:37.639Z,99682.22
2022-10-28T08:50:16.144Z,99675.34
2022-10-28T08:53:04.893Z,99684.66
2022-10-28T08:55:38.645Z,99663.13
2022-10-28T08:58:18.458Z,99677.53
2022-10-28T09:00:51.112Z,99678.38
2022-10-28T09:03:26.351Z,99678.22
2022-10-28T09:06:03.621Z,99665.34
2022-10-28T09:08:51.681Z,99677.13
2022-10-28T09:11:51.943Z,99654.16
2022-10-28T09:14:56.281Z,99677.72
2022-10-28T09:17:52.334Z,99681.09
2022-10-28T09:20:26.295Z,99680.16
2022-10-28T09:23:04.693Z,99687.00
2022-10-28T09:26:18.448Z,99672.34
2022-10-28T09:29:30.985Z,99686.75
2022-10-28T09:32:40.656Z,99704.81
2022-10-28T09:35:15.706Z,99712.66
2022-10-28T09:37:49.822Z,99712.47
2022-10-28T09:40:25.052Z,99707.25
2022-10-28T09:43:39.044Z,99726.19
2022-10-28T09:46:15.368Z,99706.19
2022-10-28T09:48:46.604Z,99692.06
2022-10-28T09:51:44.940Z,99664.13
2022-10-28T09:54:13.338Z,99642.41
2022-10-28T09:56:41.006Z,99630.94
2022-10-28T09:59:12.682Z,99633.91
2022-10-28T10:01:43.169Z,99672.31
2022-10-28T10:04:20.394Z,99671.31
2022-10-28T10:06:54.662Z,99658.50
2022-10-28T10:09:28.854Z,99666.09
2022-10-28T10:12:11.123Z,99679.66
2022-10-28T10:14:56.523Z,99676.94
2022-10-28T10:17:43.378Z,99681.81
2022-10-28T10:20:13.816Z,99679.13
2022-10-28T10:22:43.620Z,99674.56
2022-10-28T10:25:19.749Z,99681.31
2022-10-28T10:28:17.083Z,99670.69
2022-10-28T10:30:52.778Z,99661.94
2022-10-28T10:33:25.031Z,99662.94
2022-10-28T10:36:15.958Z,99656.38
2022-10-28T10:38:54.754Z,99698.13
2022-10-28T10:41:57.135Z,99706.47
2022-10-28T10:44:35.244Z,99684.56
2022-10-28T10:47:06.294Z,99667.06
2022-10-28T10:49:36.922Z,99659.03
2022-10-28T10:52:08.050Z,99642.34
2022-10-28T10:54:37.509Z,99650.13
2022-10-28T10:57:21.008Z,99674.19
2022-10-28T10:59:51.835Z,99669.69
2022-10-28T11:02:34.900Z,99644.44
2022-10-28T11:05:09.382Z,99632.81
2022-10-28T11:07:40.374Z,99616.94
2022-10-28T11:10:30.118Z,99637.66
2022-10-28T11:13:03.044Z,99635.03
2022-10-28T11:15:32.232Z,99635.44
2022-10-28T11:18:19.195Z,99626.47
2022-10-28T11:21:11.074Z,99594.75
2022-10-28T11:24:13.474Z,99623.78
2022-10-28T11:27:13.027Z,99626.13
2022-10-28T11:29:40.550Z,99615.41
2022-10-28T11:32:19.512Z,99627.09
2022-10-28T11:35:34.495Z,99632.06
2022-10-28T11:38:22.717Z,99633.56
2022-10-28T11:40:58.421Z,99634.31
2022-10-28T11:43:34.493Z,99636.63
2022-10-28T11:46:34.782Z,99641.59
2022-10-28T11:49:39.372Z,99621.34
2022-10-28T11:52:44.294Z,99619.44
2022-10-28T11:55:33.485Z,99621.81
2022-10-28T11:58:31.507Z,99610.13
2022-10-28T12:01:00.949Z,99607.22
2022-10-28T12:04:23.545Z,99597.63
2022-10-28T12:07:12.356Z,99596.25
2022-10-28T12:09:55.665Z,99583.34
2022-10-28T12:13:01.029Z,99565.03
2022-10-28T12:15:58.561Z,99551.53
2022-10-28T12:18:59.887Z,99547.91
2022-10-28T12:22:04.562Z,99532.97
2022-10-28T12:24:35.962Z,99518.81
2022-10-28T12:27:18.163Z,99512.19
2022-10-28T12:29:52.231Z,99523.84
2022-10-28T12:32:26.466Z,99539.47
2022-10-28T12:35:15.874Z,99552.25
2022-10-28T12:38:16.031Z,99558.06
2022-10-28T12:40:57.051Z,99562.16
2022-10-28T12:43:32.820Z,99549.88
2022-10-28T12:46:00.326Z,99552.00
2022-10-28T12:48:48.867Z,99549.19
2022-10-28T12:51:23.998Z,99553.41
2022-10-28T12:54:03.526Z,99547.78
2022-10-28T12:56:52.761Z,99529.34
2022-10-28T12:59:33.234Z,99531.47
2022-10-28T13:02:02.387Z,99527.44
2022-10-28T13:04:29.536Z,99520.13
2022-10-28T13:07:27.137Z,99534.94
2022-10-28T13:10:12.210Z,99528.28
2022-10-28T13:13:13.404Z,99536.69
2022-10-28T13:16:21.329Z,99536.09
2022-10-28T13:19:25.280Z,99525.31
2022-10-28T13:22:11.544Z,99522.22
2022-10-28T13:25:34.051Z,99524.41
2022-10-28T13:28:01.957Z,99507.47
2022-10-28T13:30:32.052Z,99509.97
2022-10-28T13:33:07.407Z,99522.97
2022-10-28T13:35:34.869Z,99530.78
2022-10-28T13:38:02.773Z,99512.38
2022-10-28T13:40:33.721Z,99525.53
2022-10-28T13:43:01.474Z,99522.69
2022-10-28T13:45:55.879Z,99512.69
2022-10-28T13:48:28.820Z,99526.69
2022-10-28T13:51:15.792Z,99529.28
2022-10-28T13:53:45.471Z,99531.03
2022-10-28T13:56:45.874Z,99518.88
2022-10-28T13:59:12.621Z,99523.06
2022-10-28T14:02:07.994Z,99524.03
2022-10-28T14:04:42.493Z,99522.00
2022-10-28T14:07:12.581Z,99524.41
2022-10-28T14:09:41.348Z,99505.91
2022-10-28T14:12:31.302Z,99511.16
2022-10-28T14:15:03.595Z,99499.06
2022-10-28T14:18:29.709Z,99501.81
2022-10-28T14:21:00.829Z,99515.22
2022-10-28T14:23:27.818Z,99524.75
2022-10-28T14:25:54.638Z,99524.88
2022-10-28T14:28:27.445Z,99520.47
2022-10-28T14:31:11.962Z,99530.25
2022-10-28T14:34:11.232Z,99525.44
2022-10-28T14:37:13.116Z,99536.94
2022-10-28T14:40:14.414Z,99547.72
2022-10-28T14:43:26.489Z,99540.28
2022-10-28T14:46:34.932Z,99554.88
2022-10-28T14:49:03.708Z,99543.53
2022-10-28T14:51:40.266Z,99545.09
2022-10-28T14:54:14.813Z,99543.78
2022-10-28T14:56:42.180Z,99537.59
2022-10-28T14:59:33.567Z,99547.75
2022-10-28T15:02:23.160Z,99550.13
2022-10-28T15:05:18.335Z,99549.50
2022-10-28T15:07:45.253Z,99554.88
2022-10-28T15:10:31.826Z,99550.69
2022-10-28T15:13:00.145Z,99545.28
2022-10-28T15:15:34.919Z,99550.28
2022-10-28T15:18:01.911Z,99546.25
2022-10-28T15:20:35.569Z,99542.16
2022-10-28T15:23:22.473Z,99519.50
2022-10-28T15:26:12.525Z,99543.81
2022-10-28T15:28:41.120Z,99538.78
2022-10-28T15:31:08.710Z,99534.72
2022-10-28T15:33:41.605Z,99538.06
2022-10-28T15:36:20.863Z,99536.41
2022-10-28T15:38:51.289Z,99535.66
2022-10-28T15:41:29.929Z,99538.41
2022-10-28T15:44:00.682Z,99529.16
2022-10-28T15:46:28.507Z,99533.56
2022-10-28T15:48:58.810Z,99542.41
2022-10-28T15:51:26.650Z,99528.25
2022-10-28T15:53:55.369Z,99521.44
2022-10-28T15:56:26.813Z,99537.91
2022-10-28T15:58:59.567Z,99537.19
2022-10-28T16:01:40.684Z,99529.53
2022-10-28T16:04:23.017Z,99528.00
2022-10-28T16:06:55.961Z,99516.69
2022-10-28T16:09:32.257Z,99525.69
2022-10-28T16:12:04.851Z,99534.75
2022-10-28T16:14:37.573Z,99528.75
2022-10-28T16:17:26.918Z,99516.50
2022-10-28T16:19:56.895Z,99535.28
2022-10-28T16:22:26.644Z,99532.03
2022-10-28T16:24:54.827Z,99537.50
2022-10-28T16:27:30.468Z,99541.91
2022-10-28T16:29:57.866Z,99540.22
2022-10-28T16:32:34.027Z,99543.91
2022-10-28T16:35:02.759Z,99543.59
2022-10-28T16:37:32.755Z,99544.53
2022-10-28T16:39:59.933Z,99558.16
2022-10-28T16:42:27.332Z,99551.47
2022-10-28T16:44:54.177Z,99553.34
2022-10-28T16:47:25.522Z,99552.63
2022-10-28T16:49:56.345Z,99551.88
2022-10-28T16:52:30.129Z,99552.44
2022-10-28T16:54:58.219Z,99544.88
2022-10-28T16:57:25.872Z,99553.47
2022-10-28T16:59:53.328Z,99551.19
2022-10-28T17:02:28.961Z,99564.19
2022-10-28T17:04:56.654Z,99559.16
2022-10-28T17:07:23.666Z,99561.03
2022-10-28T17:09:52.005Z,99551.88
2022-10-28T17:12:22.562Z,99559.69
2022-10-28T17:14:49.615Z,99561.63
2022-10-28T17:17:16.917Z,99570.47
2022-10-28T17:19:45.641Z,99552.84
2022-10-28T17:22:13.593Z,99575.19
2022-10-28T17:24:40.514Z,99579.69
2022-10-28T17:27:07.531Z,99581.56
2022-10-28T17:29:34.541Z,99578.19
2022-10-28T17:32:02.342Z,99579.38
2022-10-28T17:34:29.308Z,99559.22
2022-10-28T17:36:56.382Z,99573.06
2022-10-28T17:39:26.111Z,99573.38
2022-10-28T17:41:53.701Z,99578.31
2022-10-28T17:44:20.641Z,99582.81
2022-10-28T17:46:51.711Z,99571.59
2022-10-28T17:49:18.872Z,99576.94
2022-10-28T17:51:45.713Z,99585.81
2022-10-28T17:54:12.591Z,99580.91
2022-10-28T17:56:41.841Z,99595.88
2022-10-28T17:59:08.744Z,99599.47
2022-10-28T18:01:36.366Z,99585.19
2022-10-28T18:04:04.547Z,99591.13
2022-10-28T18:06:31.590Z,99594.72
2022-10-28T18:08:58.603Z,99597.34
2022-10-28T18:11:27.278Z,99589.69
2022-10-28T18:13:55.873Z,99598.47
2022-10-28T18:16:27.780Z,99602.13
2022-10-28T18:18:55.627Z,99566.34
2022-10-28T18:21:24.346Z,99606.00
2022-10-28T18:23:52.981Z,99613.84
2022-10-28T18:26:20.716Z,99613.09
2022-10-28T18:28:48.828Z,99610.69
2022-10-28T18:31:20.140Z,99596.31
2022-10-28T18:33:47.619Z,99589.63
2022-10-28T18:36:21.140Z,99603.25
2022-10-28T18:38:51.577Z,99604.47
2022-10-28T18:41:24.831Z,99615.81
2022-10-28T18:44:13.964Z,99612.81
2022-10-28T18:46:42.461Z,99616.38
2022-10-28T18:49:09.290Z,99623.28
2022-10-28T18:51:36.511Z,99626.84
2022-10-28T18:54:04.237Z,99628.72
2022-10-28T18:56:31.174Z,99624.59
2022-10-28T18:58:58.810Z,99631.63
2022-10-28T19:01:28.658Z,99628.34
2022-10-28T19:04:01.582Z,99630.22
2022-10-28T19:06:32.670Z,99626.97
2022-10-28T19:09:03.244Z,99632.28
2022-10-28T19:11:32.113Z,99640.34
2022-10-28T19:14:01.839Z,99630.78
2022-10-28T19:16:30.742Z,99639.50
2022-10-28T19:18:59.305Z,99633.63
2022-10-28T19:21:27.586Z,99637.19
2022-10-28T19:23:55.515Z,99637.34
2022-10-28T19:26:22.974Z,99624.56
2022-10-28T19:28:50.547Z,99622.06
2022-10-28T19:31:23.946Z,99619.06
2022-10-28T19:33:53.236Z,99598.81
2022-10-28T19:36:23.261Z,99613.81
2022-10-28T19:38:53.503Z,99624.13
2022-10-28T19:41:26.443Z,99627.66
2022-10-28T19:43:58.092Z,99629.34
2022-10-28T19:46:27.646Z,99628.78
2022-10-28T19:48:57.661Z,99631.50
2022-10-28T19:51:30.975Z,99607.88
2022-10-28T19:54:04.832Z,99605.38
2022-10-28T19:56:33.184Z,99623.72
2022-10-28T19:59:02.532Z,99617.78
2022-10-28T20:01:33.309Z,99618.88
2022-10-28T20:04:00.447Z,99617.13
2022-10-28T20:06:32.636Z,99610.78
2022-10-28T20:08:59.515Z,99628.59
2022-10-28T20:11:31.615Z,99633.84
2022-10-28T20:14:04.811Z,99648.69
2022-10-28T20:16:32.986Z,99650.56
2022-10-28T20:19:00.140Z,99632.91
2022-10-28T20:21:30.219Z,99647.09
2022-10-28T20:23:58.098Z,99635.16
2022-10-28T20:26:30.835Z,99633.66
2022-10-28T20:28:58.368Z,99642.44
2022-10-28T20:31:31.280Z,99643.38
2022-10-28T20:34:01.542Z,99646.19
2022-10-28T20:36:38.272Z,99651.31
2022-10-28T20:39:12.957Z,99645.44
2022-10-28T20:41:41.977Z,99642.25
2022-10-28T20:44:09.219Z,99653.38
2022-10-28T20:46:36.679Z,99658.84
2022-10-28T20:49:04.809Z,99655.13
2022-10-28T20:51:32.961Z,99662.97
2022-10-28T20:54:00.126Z,99663.72
2022-10-28T20:56:30.641Z,99661.00
2022-10-28T20:58:58.156Z,99659.50
2022-10-28T21:01:28.825Z,99669.13
2022-10-28T21:03:58.927Z,99655.66
2022-10-28T21:06:26.692Z,99666.97
2022-10-28T21:08:54.455Z,99656.94
2022-10-28T21:11:23.328Z,99656.34
2022-10-28T21:13:52.632Z,99671.53
2022-10-28T21:16:20.532Z,99667.00
2022-10-28T21:18:47.904Z,99669.69
2022-10-28T21:21:14.785Z,99667.19
2022-10-28T21:23:41.660Z,99663.91
2022-10-28T21:26:11.085Z,99666.94
2022-10-28T21:28:41.249Z,99655.44
2022-10-28T21:31:18.014Z,99659.31
2022-10-28T21:33:45.825Z,99664.34
2022-10-28T21:36:15.966Z,99663.78
2022-10-28T21:38:43.694Z,99668.28
2022-10-28T21:41:17.540Z,99655.16
2022-10-28T21:43:47.735Z,99662.06
2022-10-28T21:46:15.828Z,99669.47
2022-10-28T21:48:43.110Z,99678.28
2022-10-28T21:51:14.756Z,99669.69
2022-10-28T21:53:42.784Z,99682.59
2022-10-28T21:56:17.046Z,99687.97
2022-10-28T21:58:47.539Z,99690.53
2022-10-28T22:01:23.651Z,99680.69
2022-10-28T22:03:51.800Z,99699.06
2022-10-28T22:06:18.663Z,99694.09
2022-10-28T22:08:46.740Z,99701.69
2022-10-28T22:11:17.893Z,99689.81
2022-10-28T22:13:45.378Z,99687.19
2022-10-28T22:16:16.161Z,99696.13
2022-10-28T22:18:43.921Z,99694.63
2022-10-28T22:21:14.891Z,99700.66
2022-10-28T22:23:42.307Z,99677.28
2022-10-28T22:26:13.508Z,99699.16
2022-10-28T22:28:40.439Z,99689.16
2022-10-28T22:31:10.404Z,99685.19
2022-10-28T22:33:37.655Z,99695.31
2022-10-28T22:36:08.365Z,99693.97
2022-10-28T22:38:35.644Z,99700.66
2022-10-28T22:41:21.086Z,99681.09
2022-10-28T22:44:07.332Z,99701.53
2022-10-28T22:46:36.817Z,99705.75
2022-10-28T22:49:04.317Z,99709.25
2022-10-28T22:51:31.200Z,99706.66
2022-10-28T22:53:58.380Z,99714.56
2022-10-28T22:56:27.009Z,99719.69
2022-10-28T22:58:59.825Z,99718.34
2022-10-28T23:01:28.941Z,99715.06
2022-10-28T23:03:56.090Z,99698.22
2022-10-28T23:06:26.797Z,99715.16
2022-10-28T23:08:54.295Z,99707.84
2022-10-28T23:11:22.344Z,99714.56
2022-10-28T23:13:54.037Z,99708.44
2022-10-28T23:16:21.981Z,99714.47
2022-10-28T23:18:48.910Z,99701.03
2022-10-28T23:21:25.070Z,99708.16
2022-10-28T23:24:00.111Z,99717.53
2022-10-28T23:26:29.296Z,99722.75
2022-10-28T23:28:59.484Z,99719.19
2022-10-28T23:31:26.948Z,99712.13
2022-10-28T23:33:54.896Z,99710.69
2022-10-28T23:36:22.083Z,99704.72
2022-10-28T23:38:48.990Z,99716.00
2022-10-28T23:41:18.611Z,99696.00
2022-10-28T23:43:46.845Z,99716.22
2022-10-28T23:46:13.676Z,99707.81
2022-10-28T23:48:40.589Z,99705.28
2022-10-28T23:51:07.759Z,99709.56
2022-10-28T23:53:35.089Z,99715.47
2022-10-28T23:56:02.005Z,99703.75
2022-10-28T23:58:28.883Z,99716.44
